Time;durP1;ratioP1;P1;durP2;ratioP2;P2;SDS_P1;SDS_P2;PMS_P1;PMS_P2;Temp;Humidity;BMP_temperature;BMP_pressure;BME280_temperature;BME280_humidity;BME280_pressure;Samples;Min_cycle;Max_cycle;Signal;HPM_P1;HPM_P2
2022/02/13 00:00:13;;;;;;;27.80;11.55;;;;;;;2.62;73.29;101696.28;5033594;28;20029;-46
2022/02/13 00:02:40;;;;;;;31.70;11.30;;;;;;;2.63;73.01;101696.19;5035149;28;20029;-45
2022/02/13 00:05:06;;;;;;;28.67;11.68;;;;;;;2.63;72.88;101676.69;5035100;28;20025;-46
2022/02/13 00:07:33;;;;;;;34.72;11.75;;;;;;;2.60;73.30;101672.44;5034926;28;20060;-47
2022/02/13 00:09:59;;;;;;;26.15;11.43;;;;;;;2.60;73.23;101671.59;5034740;28;20067;-46
2022/02/13 00:12:24;;;;;;;33.00;11.68;;;;;;;2.60;73.90;101653.00;5034806;28;20029;-48
2022/02/13 00:14:49;;;;;;;27.05;11.68;;;;;;;2.59;73.05;101649.50;5034742;28;20434;-46
2022/02/13 00:17:15;;;;;;;32.17;12.38;;;;;;;2.60;73.23;101639.72;5034840;28;20132;-47
2022/02/13 00:19:41;;;;;;;41.30;12.35;;;;;;;2.59;73.27;101630.91;5034642;28;20070;-47
2022/02/13 00:22:06;;;;;;;27.02;11.55;;;;;;;2.63;73.46;101620.88;5034676;28;20040;-47
2022/02/13 00:24:32;;;;;;;31.23;11.77;;;;;;;2.64;73.87;101615.47;5034618;28;20112;-47
2022/02/13 00:26:57;;;;;;;36.33;11.65;;;;;;;2.65;73.85;101605.69;5034447;28;20048;-47
2022/02/13 00:29:23;;;;;;;31.45;12.07;;;;;;;2.65;73.93;101597.72;5034426;28;20036;-46
2022/02/13 00:31:49;;;;;;;28.25;11.57;;;;;;;2.66;73.45;101604.75;5034145;28;20088;-47
2022/02/13 00:34:14;;;;;;;32.28;12.68;;;;;;;2.67;73.61;101593.13;5034227;28;20207;-48
2022/02/13 00:36:39;;;;;;;22.77;11.50;;;;;;;2.68;73.44;101594.81;5034254;28;20029;-48
2022/02/13 00:39:06;;;;;;;28.40;12.15;;;;;;;2.71;73.62;101586.63;5034441;28;20752;-47
2022/02/13 00:41:32;;;;;;;30.85;12.27;;;;;;;2.71;74.14;101589.28;5034033;28;20049;-46
2022/02/13 00:43:57;;;;;;;36.47;12.23;;;;;;;2.70;73.99;101587.59;5034072;28;20440;-46
2022/02/13 00:46:23;;;;;;;36.33;11.52;;;;;;;2.72;73.70;101585.69;5034219;28;20033;-45
2022/02/13 00:48:48;;;;;;;31.85;11.98;;;;;;;2.71;73.98;101593.75;5034211;28;20033;-47
2022/02/13 00:51:14;;;;;;;33.00;12.00;;;;;;;2.72;73.77;101575.06;5034099;28;20136;-46
2022/02/13 00:53:39;;;;;;;29.02;10.80;;;;;;;2.75;74.32;101574.81;5034098;28;20144;-46
2022/02/13 00:56:05;;;;;;;26.27;11.32;;;;;;;2.78;73.56;101579.91;5034065;28;20383;-45
2022/02/13 00:58:30;;;;;;;28.67;10.63;;;;;;;2.80;73.70;101567.34;5033832;28;20021;-47
2022/02/13 01:00:55;;;;;;;28.17;11.05;;;;;;;2.82;73.95;101554.81;5033690;28;20116;-46
2022/02/13 01:03:21;;;;;;;28.58;12.25;;;;;;;2.89;72.91;101568.47;5033728;28;20104;-46
2022/02/13 01:05:46;;;;;;;32.55;11.70;;;;;;;2.96;72.86;101548.44;5032497;28;20120;-46
2022/02/13 01:08:12;;;;;;;28.75;10.30;;;;;;;2.97;72.50;101538.66;5033465;28;20445;-47
2022/02/13 01:10:39;;;;;;;26.17;10.30;;;;;;;2.99;72.58;101534.06;5033549;28;20492;-49
2022/02/13 01:13:04;;;;;;;23.80;10.27;;;;;;;3.03;72.07;101522.25;5033392;28;20096;-47
2022/02/13 01:15:30;;;;;;;26.65;10.43;;;;;;;3.03;71.82;101535.56;5033584;28;20117;-46
2022/02/13 01:17:55;;;;;;;29.05;11.40;;;;;;;3.03;72.19;101527.56;5033636;28;20120;-48
2022/02/13 01:20:21;;;;;;;37.30;11.25;;;;;;;3.05;71.93;101538.91;5033442;28;20026;-47
2022/02/13 01:22:46;;;;;;;23.30;10.85;;;;;;;3.03;72.49;101535.56;5033431;28;20087;-46
2022/02/13 01:25:11;;;;;;;25.27;10.13;;;;;;;3.05;71.79;101539.78;5033423;28;20033;-48
2022/02/13 01:27:37;;;;;;;25.60;10.60;;;;;;;3.02;72.53;101547.97;5033170;28;20087;-49
2022/02/13 01:30:03;;;;;;;26.17;11.30;;;;;;;2.95;72.31;101543.22;5033232;28;20037;-48
2022/02/13 01:32:28;;;;;;;28.27;10.45;;;;;;;2.91;72.73;101544.44;5033107;28;20049;-46
2022/02/13 01:34:54;;;;;;;32.55;10.70;;;;;;;2.84;72.85;101531.63;5033121;28;20287;-47
2022/02/13 01:37:19;;;;;;;30.23;10.98;;;;;;;2.80;73.79;101540.78;5033112;28;20498;-45
2022/02/13 01:39:47;;;;;;;31.67;10.85;;;;;;;2.75;73.40;101532.28;5033000;28;20112;-47
2022/02/13 01:42:12;;;;;;;23.63;9.98;;;;;;;2.73;73.69;101528.03;5032999;28;20026;-46
2022/02/13 01:44:38;;;;;;;25.48;11.00;;;;;;;2.66;74.03;101527.66;5033188;28;20451;-46
2022/02/13 01:47:03;;;;;;;24.10;10.77;;;;;;;2.64;74.05;101526.94;5032964;28;20025;-46
2022/02/13 01:49:29;;;;;;;26.13;10.05;;;;;;;2.57;74.44;101538.97;5033115;28;20049;-47
2022/02/13 01:51:56;;;;;;;28.80;9.95;;;;;;;2.57;74.49;101528.34;5033102;28;20026;-47
2022/02/13 01:54:22;;;;;;;29.73;11.75;;;;;;;2.50;74.75;101521.78;5031620;28;20033;-47
2022/02/13 01:56:47;;;;;;;21.05;9.93;;;;;;;2.50;74.74;101516.44;5032855;28;20025;-48
2022/02/13 01:59:13;;;;;;;20.70;9.68;;;;;;;2.45;74.35;101507.97;5032857;28;20028;-47
2022/02/13 02:01:39;;;;;;;30.83;10.27;;;;;;;2.41;75.26;101510.84;5032362;28;20065;-47
2022/02/13 02:04:04;;;;;;;30.85;10.75;;;;;;;2.38;74.72;101513.75;5032819;28;20071;-46
2022/02/13 02:06:29;;;;;;;20.85;9.73;;;;;;;2.39;74.76;101509.28;5032814;28;20531;-47
2022/02/13 02:08:55;;;;;;;22.98;10.10;;;;;;;2.35;74.65;101503.34;5032692;28;20361;-46
2022/02/13 02:11:20;;;;;;;24.95;9.63;;;;;;;2.36;74.81;101493.56;5032511;28;20499;-46
2022/02/13 02:13:46;;;;;;;29.48;10.55;;;;;;;2.37;74.62;101496.13;5032678;28;20120;-50
2022/02/13 02:16:11;;;;;;;22.23;9.60;;;;;;;2.33;75.24;101483.19;5032633;28;20026;-46
2022/02/13 02:18:36;;;;;;;22.75;10.43;;;;;;;2.32;75.14;101477.03;5032739;28;20117;-46
2022/02/13 02:21:04;;;;;;;24.25;10.68;;;;;;;2.32;74.99;101465.56;5032713;28;20375;-47
2022/02/13 02:23:32;;;;;;;23.95;9.55;;;;;;;2.33;74.47;101462.75;5032500;28;20038;-46
2022/02/13 02:25:58;;;;;;;23.05;10.32;;;;;;;2.33;75.15;101462.75;5032317;28;20034;-48
2022/02/13 02:28:23;;;;;;;25.55;9.98;;;;;;;2.30;74.37;101447.06;5032561;28;20044;-46
2022/02/13 02:30:48;;;;;;;27.15;10.48;;;;;;;2.26;75.27;101444.75;5032182;28;20022;-47
2022/02/13 02:33:14;;;;;;;28.75;10.50;;;;;;;2.24;75.02;101452.84;5031055;28;20388;-46
2022/02/13 02:35:39;;;;;;;19.30;9.98;;;;;;;2.22;75.28;101437.97;5032493;28;20380;-46
2022/02/13 02:38:05;;;;;;;19.77;9.93;;;;;;;2.20;74.88;101433.59;5032340;28;20116;-46
2022/02/13 02:40:30;;;;;;;20.50;10.23;;;;;;;2.18;75.17;101424.91;5032309;28;20025;-46
2022/02/13 02:42:56;;;;;;;34.95;12.40;;;;;;;2.17;75.45;101422.38;5032338;28;20029;-46
2022/02/13 02:45:21;;;;;;;24.27;10.32;;;;;;;2.16;75.60;101420.69;5032347;28;20025;-46
2022/02/13 02:47:46;;;;;;;29.90;11.00;;;;;;;2.16;75.45;101413.56;5032293;28;20163;-46
2022/02/13 02:50:13;;;;;;;23.27;10.25;;;;;;;2.19;75.32;101399.22;5032320;28;20087;-46
2022/02/13 02:52:39;;;;;;;27.58;10.80;;;;;;;2.19;75.50;101397.41;5032103;28;20053;-47
2022/02/13 02:55:05;;;;;;;21.50;10.68;;;;;;;2.21;75.29;101391.94;5032359;28;20206;-45
2022/02/13 02:57:30;;;;;;;25.75;10.57;;;;;;;2.20;75.24;101392.94;5032105;28;20116;-46
2022/02/13 02:59:56;;;;;;;23.35;9.25;;;;;;;2.18;75.52;101384.22;5031932;28;20053;-46
2022/02/13 03:02:21;;;;;;;30.70;11.15;;;;;;;2.18;75.64;101384.22;5031774;28;20061;-45
2022/02/13 03:04:47;;;;;;;21.17;9.90;;;;;;;2.14;75.70;101382.78;5031804;28;20039;-47
2022/02/13 03:07:12;;;;;;;33.53;11.70;;;;;;;2.13;75.64;101370.44;5031964;28;20029;-46
2022/02/13 03:09:37;;;;;;;30.73;11.02;;;;;;;2.13;75.86;101375.75;5030455;28;20022;-46
2022/02/13 03:12:03;;;;;;;22.40;10.05;;;;;;;2.07;76.27;101379.72;5031688;28;20026;-47
2022/02/13 03:14:28;;;;;;;21.35;10.18;;;;;;;2.06;75.62;101363.91;5033035;28;20408;-46
2022/02/13 03:16:54;;;;;;;30.80;11.50;;;;;;;2.06;76.28;101347.97;5035687;28;20029;-46
2022/02/13 03:19:19;;;;;;;28.95;10.23;;;;;;;2.09;75.34;101351.25;5035657;28;20112;-47
2022/02/13 03:21:44;;;;;;;25.25;10.60;;;;;;;2.14;75.63;101356.22;5035476;28;20110;-47
2022/02/13 03:24:10;;;;;;;26.95;10.82;;;;;;;2.13;75.40;101359.81;5035217;28;20442;-46
2022/02/13 03:26:35;;;;;;;25.50;10.80;;;;;;;2.11;75.83;101367.06;5035735;28;20025;-46
2022/02/13 03:29:01;;;;;;;22.85;10.65;;;;;;;2.10;75.18;101362.72;5035340;28;20021;-47
2022/02/13 03:31:27;;;;;;;24.35;10.50;;;;;;;2.09;75.58;101358.38;5035371;28;20045;-47
2022/02/13 03:33:52;;;;;;;28.05;10.82;;;;;;;2.09;75.05;101345.09;5035544;28;20029;-46
2022/02/13 03:36:19;;;;;;;25.00;9.95;;;;;;;2.08;75.37;101346.03;5035301;28;20502;-47
2022/02/13 03:38:45;;;;;;;27.48;10.45;;;;;;;2.07;75.57;101345.19;5035093;28;20531;-46
2022/02/13 03:41:10;;;;;;;28.95;10.55;;;;;;;2.05;75.54;101346.28;5035103;28;20120;-46
2022/02/13 03:43:35;;;;;;;24.13;10.77;;;;;;;2.03;76.20;101337.56;5035141;28;20399;-46
2022/02/13 03:46:01;;;;;;;31.10;10.50;;;;;;;2.03;75.97;101348.19;5033826;28;20036;-46
2022/02/13 03:48:26;;;;;;;17.95;9.30;;;;;;;2.02;76.11;101349.16;5034902;28;20502;-46
2022/02/13 03:50:51;;;;;;;24.98;10.63;;;;;;;2.03;75.91;101349.06;5034984;28;20480;-47
2022/02/13 03:53:17;;;;;;;26.98;11.18;;;;;;;2.01;76.20;101331.56;5034937;28;20024;-48
2022/02/13 03:55:42;;;;;;;19.42;9.73;;;;;;;2.01;76.08;101335.03;5034889;28;20388;-47
2022/02/13 03:58:07;;;;;;;20.52;10.13;;;;;;;1.98;76.38;101340.59;5034851;28;20018;-46
2022/02/13 04:00:33;;;;;;;26.60;10.65;;;;;;;1.97;76.34;101334.44;5034788;28;20061;-46
2022/02/13 04:02:58;;;;;;;25.90;10.52;;;;;;;1.96;75.90;101343.34;5034634;28;20097;-46
2022/02/13 04:05:24;;;;;;;23.08;10.77;;;;;;;1.95;76.50;101331.03;5034603;28;20033;-45
2022/02/13 04:07:49;;;;;;;17.92;9.27;;;;;;;1.96;76.38;101332.72;5033394;28;20076;-45
2022/02/13 04:10:15;;;;;;;23.23;10.82;;;;;;;1.94;76.74;101328.50;5034722;28;20028;-47
2022/02/13 04:12:41;;;;;;;20.70;9.82;;;;;;;2.01;76.23;101326.25;5034528;28;20061;-47
2022/02/13 04:15:07;;;;;;;20.45;9.60;;;;;;;1.94;76.45;101329.31;5034534;28;20107;-45
2022/02/13 04:17:33;;;;;;;26.25;11.82;;;;;;;1.93;76.46;101329.47;5034356;28;20407;-45
2022/02/13 04:19:58;;;;;;;26.80;10.60;;;;;;;1.92;76.43;101320.66;5034216;28;20025;-46
2022/02/13 04:22:23;;;;;;;20.65;10.05;;;;;;;1.90;76.80;101319.91;5034259;28;20028;-46
2022/02/13 04:24:48;;;;;;;28.50;10.68;;;;;;;1.90;76.88;101327.88;5034008;28;20029;-47
2022/02/13 04:27:14;;;;;;;30.33;10.85;;;;;;;1.89;77.44;101331.47;5034227;28;20117;-46
2022/02/13 04:29:39;;;;;;;21.13;11.13;;;;;;;1.91;77.30;101329.56;5034519;28;20033;-46
2022/02/13 04:32:05;;;;;;;23.42;10.48;;;;;;;1.93;76.96;101317.03;5034044;28;20064;-46
2022/02/13 04:34:30;;;;;;;24.20;11.15;;;;;;;1.94;77.06;101329.31;5034074;28;20534;-47
2022/02/13 04:36:56;;;;;;;22.17;10.52;;;;;;;1.93;77.31;101324.16;5033990;28;20036;-46
2022/02/13 04:39:21;;;;;;;27.90;11.40;;;;;;;1.95;76.96;101316.94;5033856;28;20030;-47
2022/02/13 04:41:46;;;;;;;24.75;10.70;;;;;;;1.93;76.92;101306.41;5033855;28;20037;-46
2022/02/13 04:44:12;;;;;;;21.45;10.48;;;;;;;1.91;77.29;101318.09;5033763;28;20061;-47
2022/02/13 04:46:37;;;;;;;21.00;10.00;;;;;;;1.92;76.90;101310.03;5033910;28;20030;-45
2022/02/13 04:49:02;;;;;;;19.55;9.65;;;;;;;1.96;76.63;101303.53;5034063;28;20021;-46
2022/02/13 04:51:27;;;;;;;22.20;9.73;;;;;;;1.97;77.16;101302.59;5033966;28;20033;-47
2022/02/13 04:53:53;;;;;;;26.35;10.35;;;;;;;2.03;76.42;101303.06;5033779;28;20104;-45
2022/02/13 04:56:18;;;;;;;19.40;10.00;;;;;;;2.05;76.00;101287.84;5033580;28;20028;-47
2022/02/13 04:58:43;;;;;;;21.35;10.10;;;;;;;2.08;76.56;101284.97;5033495;28;20104;-50
2022/02/13 05:01:09;;;;;;;21.67;9.68;;;;;;;2.12;75.54;101283.78;5033696;28;20055;-46
2022/02/13 05:03:34;;;;;;;27.85;10.13;;;;;;;2.17;75.04;101276.31;5033587;28;20018;-46
2022/02/13 05:06:00;;;;;;;28.30;9.82;;;;;;;2.21;75.41;101269.78;5033509;28;20396;-46
2022/02/13 05:08:25;;;;;;;25.30;10.32;;;;;;;2.24;75.27;101263.41;5033637;28;20104;-48
2022/02/13 05:10:50;;;;;;;19.08;10.05;;;;;;;2.27;75.31;101257.88;5033594;28;20037;-46
2022/02/13 05:13:16;;;;;;;17.83;10.02;;;;;;;2.28;74.89;101251.59;5033106;28;20030;-47
2022/02/13 05:15:41;;;;;;;20.67;9.35;;;;;;;2.29;74.83;101259.47;5033204;28;20030;-46
2022/02/13 05:18:06;;;;;;;23.60;10.27;;;;;;;2.32;74.52;101258.38;5033138;28;20025;-46
2022/02/13 05:20:32;;;;;;;18.15;9.60;;;;;;;2.35;74.91;101261.63;5032920;28;20032;-46
2022/02/13 05:22:57;;;;;;;22.50;10.40;;;;;;;2.36;74.85;101258.00;5033022;28;20026;-47
2022/02/13 05:25:24;;;;;;;20.85;9.68;;;;;;;2.38;75.15;101253.41;5032914;28;20029;-47
2022/02/13 05:27:49;;;;;;;22.65;9.38;;;;;;;2.40;74.66;101255.97;5033164;28;20026;-46
2022/02/13 05:30:14;;;;;;;19.50;9.80;;;;;;;2.39;74.77;101244.47;5033010;28;20033;-48
2022/02/13 05:32:41;;;;;;;21.13;10.43;;;;;;;2.41;74.87;101237.25;5032679;28;20127;-45
2022/02/13 05:35:06;;;;;;;24.92;10.10;;;;;;;2.41;74.81;101239.91;5032841;28;20116;-46
2022/02/13 05:37:32;;;;;;;26.98;9.70;;;;;;;2.45;74.86;101237.00;5032099;28;20112;-45
2022/02/13 05:39:57;;;;;;;19.85;10.18;;;;;;;2.48;74.24;101228.81;5032653;28;20027;-46
2022/02/13 05:42:24;;;;;;;22.38;10.20;;;;;;;2.47;74.27;101229.75;5033000;28;20490;-47
2022/02/13 05:44:51;;;;;;;24.00;9.43;;;;;;;2.43;74.26;101231.81;5032732;28;20083;-46
2022/02/13 05:47:16;;;;;;;21.33;10.02;;;;;;;2.41;75.01;101220.47;5032823;28;20108;-45
2022/02/13 05:49:41;;;;;;;18.92;9.57;;;;;;;2.47;74.14;101213.81;5032235;28;20387;-46
2022/02/13 05:52:07;;;;;;;19.95;9.43;;;;;;;2.46;74.07;101209.47;5031663;28;20053;-47
2022/02/13 05:54:32;;;;;;;22.83;10.00;;;;;;;2.47;74.08;101206.69;5032788;28;20033;-48
2022/02/13 05:56:57;;;;;;;20.90;9.60;;;;;;;2.53;73.54;101216.00;5032567;28;20040;-47
2022/02/13 05:59:23;;;;;;;25.92;10.48;;;;;;;2.52;73.52;101201.84;5032515;28;20062;-45
2022/02/13 06:01:48;;;;;;;22.02;9.38;;;;;;;2.52;74.26;101212.50;5032473;28;20128;-47
2022/02/13 06:04:14;;;;;;;22.33;9.73;;;;;;;2.53;73.91;101208.88;5032332;28;20029;-47
2022/02/13 06:06:39;;;;;;;23.15;10.68;;;;;;;2.55;73.88;101200.78;5032912;28;20030;-46
2022/02/13 06:09:04;;;;;;;25.40;10.95;;;;;;;2.54;74.53;101193.78;5032018;28;20025;-48
2022/02/13 06:11:30;;;;;;;23.40;10.60;;;;;;;2.52;74.52;101206.34;5031939;28;20037;-47
2022/02/13 06:13:55;;;;;;;23.23;9.60;;;;;;;2.52;74.54;101206.34;5032199;28;20040;-48
2022/02/13 06:16:20;;;;;;;27.88;11.15;;;;;;;2.52;74.19;101193.88;5031964;28;20036;-47
2022/02/13 06:18:45;;;;;;;19.42;9.27;;;;;;;2.51;74.71;101188.72;5032136;28;20537;-45
2022/02/13 06:21:11;;;;;;;20.33;10.52;;;;;;;2.49;74.72;101190.63;5032051;28;20663;-48
2022/02/13 06:23:36;;;;;;;20.67;10.25;;;;;;;2.48;75.50;101207.56;5032059;28;20033;-46
2022/02/13 06:26:02;;;;;;;29.65;10.80;;;;;;;2.49;75.49;101195.94;5032050;28;20025;-47
2022/02/13 06:28:27;;;;;;;19.75;9.77;;;;;;;2.45;75.28;101186.53;5032207;28;20052;-47
2022/02/13 06:30:52;;;;;;;21.80;10.23;;;;;;;2.46;75.49;101177.59;5032103;28;20025;-46
2022/02/13 06:33:18;;;;;;;25.33;10.20;;;;;;;2.45;75.46;101183.88;5032377;28;20049;-45
2022/02/13 06:35:43;;;;;;;21.27;10.43;;;;;;;2.44;75.89;101171.56;5032190;28;20104;-46
2022/02/13 06:38:12;;;;;;;23.30;10.27;;;;;;;2.45;75.18;101166.13;5032099;28;20057;-45
2022/02/13 06:40:39;;;;;;;22.85;9.85;;;;;;;2.54;75.51;101161.91;5032199;28;20045;-46
2022/02/13 06:43:04;;;;;;;19.40;9.73;;;;;;;2.55;75.45;101164.41;5032322;28;20029;-46
2022/02/13 06:45:29;;;;;;;22.73;10.27;;;;;;;2.51;75.82;101159.50;5032284;28;20030;-47
2022/02/13 06:47:54;;;;;;;24.42;10.18;;;;;;;2.49;75.70;101153.44;5032673;28;20495;-46
2022/02/13 06:50:20;;;;;;;23.20;9.90;;;;;;;2.47;76.09;101160.69;5036216;28;20539;-47
2022/02/13 06:52:45;;;;;;;24.17;11.63;;;;;;;2.46;76.35;101157.19;5036014;28;20026;-45
2022/02/13 06:55:11;;;;;;;20.38;10.30;;;;;;;2.49;75.56;101164.06;5036503;28;20368;-46
2022/02/13 06:57:43;;;;;;;20.15;10.27;;;;;;;2.51;75.36;101164.81;5036354;28;20059;-46
2022/02/13 07:00:10;;;;;;;25.73;10.65;;;;;;;2.51;76.31;101168.28;5036255;28;20028;-46
2022/02/13 07:02:35;;;;;;;22.48;10.18;;;;;;;2.53;75.88;101161.06;5036160;28;20042;-46
2022/02/13 07:05:00;;;;;;;26.00;10.57;;;;;;;2.52;76.12;101171.78;5036063;28;20033;-48
2022/02/13 07:07:26;;;;;;;23.90;11.02;;;;;;;2.53;76.00;101169.03;5036044;28;20034;-46
2022/02/13 07:09:51;;;;;;;24.77;10.48;;;;;;;2.55;75.98;101174.19;5035913;28;20487;-46
2022/02/13 07:12:16;;;;;;;23.88;10.30;;;;;;;2.55;75.41;101174.19;5036001;28;20029;-47
2022/02/13 07:14:42;;;;;;;25.48;11.13;;;;;;;2.56;75.93;101175.91;5035856;28;20032;-46
2022/02/13 07:17:07;;;;;;;26.10;10.13;;;;;;;2.60;75.53;101172.03;5035900;28;20029;-46
2022/02/13 07:19:32;;;;;;;25.05;10.35;;;;;;;2.62;75.60;101160.31;5035784;28;20171;-45
2022/02/13 07:21:58;;;;;;;23.50;9.82;;;;;;;2.69;75.49;101165.16;5035723;28;20753;-47
2022/02/13 07:24:24;;;;;;;21.17;10.07;;;;;;;2.67;75.42;101156.44;5035934;28;20041;-48
2022/02/13 07:26:49;;;;;;;27.55;10.07;;;;;;;2.64;75.37;101171.66;5035333;28;20022;-46
2022/02/13 07:29:14;;;;;;;20.10;10.10;;;;;;;2.69;75.11;101144.72;5035167;28;20071;-47
2022/02/13 07:31:40;;;;;;;20.65;9.98;;;;;;;2.64;75.57;101153.06;5035263;28;20084;-46
2022/02/13 07:34:06;;;;;;;24.90;10.38;;;;;;;2.65;75.73;101148.59;5035019;28;20033;-47
2022/02/13 07:36:32;;;;;;;21.08;10.57;;;;;;;2.63;76.09;101146.06;5035285;28;20026;-47
2022/02/13 07:38:58;;;;;;;21.40;9.73;;;;;;;2.66;75.38;101152.97;5035395;28;20445;-47
2022/02/13 07:41:25;;;;;;;20.88;10.02;;;;;;;2.62;75.59;101143.53;5035209;28;20072;-47
2022/02/13 07:43:51;;;;;;;31.65;11.57;;;;;;;2.63;75.36;101147.88;5035406;28;20021;-47
2022/02/13 07:46:16;;;;;;;20.15;10.20;;;;;;;2.65;75.83;101143.28;5034126;28;20099;-46
2022/02/13 07:48:42;;;;;;;21.65;10.18;;;;;;;2.66;75.70;101139.66;5035260;28;20113;-49
2022/02/13 07:51:09;;;;;;;23.92;10.82;;;;;;;2.64;75.31;101133.63;5035261;28;20026;-47
2022/02/13 07:53:35;;;;;;;19.65;10.02;;;;;;;2.67;75.61;101141.34;5035289;28;20021;-47
2022/02/13 07:56:00;;;;;;;19.38;9.52;;;;;;;2.68;75.57;101147.50;5035049;28;20083;-46
2022/02/13 07:58:30;;;;;;;22.40;10.43;;;;;;;2.66;76.00;101144.97;5035248;28;20391;-46
2022/02/13 08:00:55;;;;;;;19.83;9.85;;;;;;;2.69;75.82;101134.09;5033979;28;20106;-46
2022/02/13 08:03:21;;;;;;;19.48;9.15;;;;;;;2.72;75.39;101123.22;5034715;28;20483;-46
2022/02/13 08:05:46;;;;;;;20.02;9.50;;;;;;;2.74;75.76;101121.28;5034990;28;20544;-46
2022/02/13 08:08:11;;;;;;;21.70;10.40;;;;;;;2.75;75.25;101117.66;5035203;28;20052;-46
2022/02/13 08:10:39;;;;;;;25.67;10.25;;;;;;;2.80;75.29;101110.16;5034785;28;20029;-47
2022/02/13 08:13:04;;;;;;;23.00;9.43;;;;;;;2.84;74.78;101111.59;5034674;28;20021;-46
2022/02/13 08:15:30;;;;;;;19.50;9.15;;;;;;;2.85;75.18;101097.31;5034583;28;20076;-46
2022/02/13 08:17:55;;;;;;;19.10;9.57;;;;;;;2.87;74.95;101083.94;5033538;28;20030;-47
2022/02/13 08:20:20;;;;;;;22.42;9.60;;;;;;;2.92;74.68;101099.47;5034821;28;20026;-45
2022/02/13 08:22:46;;;;;;;29.23;10.07;;;;;;;2.96;74.47;101095.59;5034628;28;20029;-47
2022/02/13 08:25:11;;;;;;;20.80;8.48;;;;;;;3.05;74.45;101098.34;5034411;28;20156;-47
2022/02/13 08:27:37;;;;;;;16.40;8.57;;;;;;;3.11;74.40;101078.38;5034411;28;20033;-46
2022/02/13 08:30:03;;;;;;;18.77;9.05;;;;;;;3.16;74.30;101078.84;5034443;28;20112;-46
2022/02/13 08:32:28;;;;;;;24.73;9.57;;;;;;;3.14;74.42;101093.25;5034299;28;20045;-46
2022/02/13 08:34:54;;;;;;;18.00;8.43;;;;;;;3.16;73.99;101088.63;5034232;28;20094;-45
2022/02/13 08:37:19;;;;;;;17.20;8.88;;;;;;;3.18;74.26;101107.97;5034151;28;20056;-45
2022/02/13 08:39:45;;;;;;;21.23;9.13;;;;;;;3.16;74.22;101081.50;5034274;28;20435;-45
2022/02/13 08:42:11;;;;;;;22.08;8.75;;;;;;;3.15;74.59;101082.47;5034369;28;20128;-46
2022/02/13 08:44:36;;;;;;;20.60;9.23;;;;;;;3.18;73.66;101076.88;5033020;28;20065;-46
2022/02/13 08:47:01;;;;;;;16.63;8.85;;;;;;;3.22;73.99;101077.50;5034249;28;20026;-46
2022/02/13 08:49:27;;;;;;;18.17;8.27;;;;;;;3.26;74.15;101063.78;5034490;28;20029;-46
2022/02/13 08:51:52;;;;;;;21.92;8.93;;;;;;;3.29;74.21;101068.88;5033967;28;20092;-46
2022/02/13 08:54:17;;;;;;;20.88;9.00;;;;;;;3.27;73.95;101065.47;5034078;28;20080;-46
2022/02/13 08:56:43;;;;;;;20.40;9.02;;;;;;;3.26;74.14;101065.59;5033958;28;20033;-46
2022/02/13 08:59:08;;;;;;;17.88;9.10;;;;;;;3.24;74.24;101059.59;5033830;28;20104;-46
2022/02/13 09:01:35;;;;;;;20.05;9.27;;;;;;;3.23;74.01;101074.69;5033637;28;20030;-46
2022/02/13 09:04:00;;;;;;;18.90;8.73;;;;;;;3.21;74.05;101059.81;5033725;28;20030;-46
2022/02/13 09:06:25;;;;;;;21.65;9.05;;;;;;;3.22;74.15;101061.53;5033739;28;20033;-46
2022/02/13 09:08:51;;;;;;;20.60;8.88;;;;;;;3.27;74.44;101062.00;5033933;28;20412;-49
2022/02/13 09:11:16;;;;;;;22.00;8.93;;;;;;;3.34;74.03;101049.00;5033202;28;20528;-46
2022/02/13 09:13:41;;;;;;;22.63;9.15;;;;;;;3.33;73.87;101055.31;5032670;28;20523;-46
2022/02/13 09:16:07;;;;;;;20.90;9.68;;;;;;;3.27;74.22;101038.88;5033147;28;20104;-47
2022/02/13 09:18:32;;;;;;;17.40;8.23;;;;;;;3.41;74.30;101028.88;5032801;28;20063;-48
2022/02/13 09:20:58;;;;;;;22.35;9.63;;;;;;;3.57;74.06;101039.06;5033217;28;20022;-48
2022/02/13 09:23:23;;;;;;;17.90;7.93;;;;;;;3.73;73.14;101008.31;5033466;28;20037;-47
2022/02/13 09:25:49;;;;;;;19.25;9.13;;;;;;;3.81;72.37;101014.78;5032984;28;20021;-47
2022/02/13 09:28:16;;;;;;;16.00;8.57;;;;;;;4.00;72.43;101003.38;5031919;28;20022;-47
2022/02/13 09:30:46;;;;;;;16.73;8.38;;;;;;;4.10;72.01;100997.09;5033244;28;20097;-46
2022/02/13 09:33:12;;;;;;;17.95;8.52;;;;;;;4.46;71.03;101000.13;5033565;28;20400;-47
2022/02/13 09:35:37;;;;;;;15.45;8.57;;;;;;;4.46;71.07;101004.59;5033284;28;20132;-47
2022/02/13 09:38:02;;;;;;;18.67;8.27;;;;;;;4.42;70.58;101009.34;5033197;28;20026;-47
2022/02/13 09:40:33;;;;;;;17.95;8.23;;;;;;;4.64;70.47;101004.78;5033148;28;20021;-47
2022/02/13 09:43:01;;;;;;;22.85;9.93;;;;;;;4.53;71.08;100987.94;5033160;28;20041;-48
2022/02/13 09:45:26;;;;;;;;;;;;;;;4.56;71.26;100979.66;5033252;28;20017;-46
2022/02/13 09:47:52;;;;;;;20.23;9.07;;;;;;;4.76;69.85;100990.31;5031708;28;19916;-48
2022/02/13 09:50:19;;;;;;;14.18;8.85;;;;;;;4.67;70.51;101017.81;5031697;28;20061;-46
2022/02/13 09:52:47;;;;;;;16.90;9.18;;;;;;;4.72;70.92;100988.91;5032775;28;20029;-47
2022/02/13 09:55:13;;;;;;;16.40;8.82;;;;;;;4.94;69.94;100988.63;5032843;28;20037;-47
2022/02/13 10:00:22;;;;;;;17.60;9.02;;;;;;;5.09;69.08;100974.84;5032783;28;20467;-46
2022/02/13 10:02:47;;;;;;;15.55;8.40;;;;;;;5.09;69.45;100977.53;5032626;28;20064;-45
2022/02/13 10:05:19;;;;;;;16.95;8.93;;;;;;;5.13;69.12;100997.56;5032644;28;20426;-45
2022/02/13 10:07:44;;;;;;;19.77;9.23;;;;;;;5.43;68.30;100976.03;5032557;28;20520;-48
2022/02/13 10:10:11;;;;;;;20.40;10.00;;;;;;;5.39;68.41;100979.97;5032614;28;20029;-48
2022/02/13 10:12:44;;;;;;;18.77;9.52;;;;;;;5.40;68.43;100972.81;5032303;28;20033;-46
2022/02/13 10:15:21;;;;;;;19.05;9.30;;;;;;;5.22;69.07;100980.72;5032557;28;20039;-50
2022/02/13 10:18:06;;;;;;;26.58;10.65;;;;;;;5.33;69.08;100964.53;5032563;28;20119;-47
2022/02/13 10:20:34;;;;;;;19.50;10.15;;;;;;;5.24;69.32;100960.09;5031204;28;20044;-47
2022/02/13 10:23:10;;;;;;;19.48;9.15;;;;;;;5.24;69.38;100957.41;5032052;28;20377;-47
2022/02/13 10:25:37;;;;;;;27.42;9.23;;;;;;;5.23;69.61;100969.06;5031244;28;20460;-47
2022/02/13 10:28:13;;;;;;;25.52;9.98;;;;;;;5.31;69.48;100973.66;5032440;28;20026;-47
2022/02/13 10:30:43;;;;;;;25.20;9.07;;;;;;;5.25;69.38;100964.41;5032266;28;20480;-47
2022/02/13 10:33:26;;;;;;;20.80;9.38;;;;;;;5.17;70.03;100961.63;5032218;28;20061;-48
2022/02/13 10:36:12;;;;;;;17.17;8.20;;;;;;;5.11;69.70;100972.88;5032432;28;20128;-48
2022/02/13 10:38:42;;;;;;;20.33;8.65;;;;;;;5.14;70.07;100946.75;5032080;28;20033;-47
2022/02/13 10:41:15;;;;;;;17.95;8.60;;;;;;;5.13;69.56;100965.56;5032234;28;20469;-48
2022/02/13 10:43:56;;;;;;;17.00;9.35;;;;;;;5.13;69.90;100937.06;5032206;28;20044;-48
2022/02/13 10:46:24;;;;;;;20.63;9.18;;;;;;;5.35;68.96;100933.22;5032134;28;20041;-47
2022/02/13 10:48:50;;;;;;;19.60;9.38;;;;;;;5.41;69.36;100921.94;5032210;28;20021;-46
2022/02/13 10:51:15;;;;;;;20.42;8.82;;;;;;;5.78;68.14;100928.25;5032012;28;20028;-48
2022/02/13 10:53:41;;;;;;;21.33;8.52;;;;;;;5.78;67.05;100934.44;5031807;28;20060;-50
2022/02/13 10:56:07;;;;;;;13.82;8.60;;;;;;;5.80;67.16;100921.78;5032178;28;20079;-48
2022/02/13 10:58:32;;;;;;;15.45;7.90;;;;;;;6.51;64.70;100899.66;5032030;28;20113;-47
2022/02/13 11:01:00;;;;;;;18.27;8.05;;;;;;;6.72;64.03;100917.19;5031869;28;20026;-48
2022/02/13 11:03:25;;;;;;;18.60;8.18;;;;;;;6.33;64.30;100902.31;5031998;28;20029;-47
2022/02/13 11:05:52;;;;;;;19.52;7.88;;;;;;;6.20;65.35;100901.84;5030657;28;20025;-47
2022/02/13 11:08:18;;;;;;;21.05;8.20;;;;;;;6.40;65.17;100891.88;5030593;28;20022;-47
2022/02/13 11:10:49;;;;;;;13.85;7.18;;;;;;;6.25;65.26;100891.56;5030594;28;20021;-47
2022/02/13 11:13:16;;;;;;;17.95;7.43;;;;;;;6.15;65.35;100880.94;5031967;28;20507;-46
2022/02/13 11:15:42;;;;;;;14.68;7.65;;;;;;;6.07;65.42;100885.38;5031052;28;20026;-47
2022/02/13 11:18:14;;;;;;;20.30;7.70;;;;;;;5.99;65.71;100885.28;5031990;28;20033;-46